Archival Weather

Heathrow

London, United Kingdom (EGLL)

Report from: Sunday, March 19, 2023 3:20 AM GMT
Current time: Tuesday, February 27, 2024 9:51 AM GMT

Current weather – Weather history – Daily summaries
Weather forecast

Present weatherLight rain
Temperature7.0°C (44.6°F)
Wind chill5.6°C (42.2°F)
Dew point5.0°C (41.0°F)
Winds 4 kts (2.1 m/s, 4.6 mph) West (270°)
Visibility6.2 mi. (10 km)
Clouds Ceiling: Broken clouds 4,600 ft. (1,402 m)
Altimeter29.88 in.Hg (1012 mB)
Relative humidity87 %
Density altitude-793 ft. (-242 m)
Remarks Fully automated report
No significant changes expected in the next two hours
Flight conditions Visual Meteorological Conditions
Raw dataEGLL 190320Z AUTO 27004KT 9999 -RA BKN046 07/05 Q1012 NOSIG
An error has occurred. This application may no longer respond until reloaded. Reload 🗙